Gil Vicente — CSKG — position and weather

sailwx.info

Track history (hours):
 
Tides and Currents Weather Stations Pressure Air Temp Water Temp Dewpoint Dewpoint Depression Visibility Wind Speed Wind Dir Waves Ship Positions

Gil Vicente

Last reported at 2016-Feb-08 20:12 UTC. Time now 2016-Feb-10 06:44 UTC.
Position N 38°39' W 009°05'.

Length 49 m.

Type: Passenger vessel. MMSI: 263701390.

Date/timePositionNaut miles runAvg speedWind from/ knotsBaromVisibWave heightAir tempDewpointWater temp
2016-Feb-08 20:12N 38°39' W 009°05'4 5.7
2016-Feb-08 19:33N 38°42' W 009°08'0 0.5
2016-Feb-08 18:34N 38°42' W 009°08'3 2.6
2016-Feb-08 17:33N 38°40' W 009°07'1 1.4
2016-Feb-08 16:33N 38°39' W 009°05'1 0.7
2016-Feb-08 15:34N 38°40' W 009°06'1 0.2
2016-Feb-08 10:22N 38°39' W 009°05'2 2.0
2016-Feb-08 09:33N 38°40' W 009°07'0 0.3
2016-Feb-08 08:34N 38°40' W 009°07'2 1.8
2016-Feb-08 07:33N 38°39' W 009°05'0 0.0
2016-Feb-08 06:34N 38°39' W 009°05'0 0.0
2016-Feb-08 05:34N 38°39' W 009°05'3 0.4
2016-Feb-07 21:33N 38°41' W 009°08'3 3.0
2016-Feb-07 20:34N 38°39' W 009°05'2 1.6
2016-Feb-07 19:34N 38°40' W 009°07'0 0.3
2016-Feb-07 18:33N 38°40' W 009°06'0 0.1
2016-Feb-07 17:33N 38°40' W 009°06'0 0.2
2016-Feb-07 16:34N 38°40' W 009°07'0 0.0
2016-Feb-07 15:34N 38°40' W 009°07'0 0.1
2016-Feb-07 14:34N 38°40' W 009°06'0 0.3
2016-Feb-07 13:34N 38°40' W 009°06'1 0.2
2016-Feb-07 07:34N 38°39' W 009°05'1 0.9
2016-Feb-07 06:33N 38°39' W 009°06'1 0.9
2016-Feb-07 05:33N 38°39' W 009°05'3 0.4
2016-Feb-06 21:33N 38°41' W 009°08'3 2.9
2016-Feb-06 20:33N 38°39' W 009°05'2 1.8
2016-Feb-06 19:34N 38°40' W 009°07'0 0.4
2016-Feb-06 18:33N 38°40' W 009°06'0 0.1
2016-Feb-06 17:34N 38°40' W 009°06'0 0.3
2016-Feb-06 16:34N 38°40' W 009°06'0 0.1
2016-Feb-06 15:33N 38°40' W 009°07'0 0.3
2016-Feb-06 14:33N 38°40' W 009°06'0 0.1
2016-Feb-06 13:33N 38°40' W 009°06'1 1.4
2016-Feb-06 12:34N 38°39' W 009°05'0 0.0
2016-Feb-06 11:33N 38°39' W 009°05'3 2.9
2016-Feb-06 10:33N 38°41' W 009°08'0 0.1
2016-Feb-06 09:33N 38°41' W 009°08'0 0.2
2016-Feb-06 08:33N 38°41' W 009°08'3 3.0
2016-Feb-06 07:34N 38°39' W 009°05'1 0.5
2016-Feb-06 06:34N 38°39' W 009°05'1 0.5
2016-Feb-06 05:34N 38°39' W 009°05'0 0.0
2016-Feb-06 04:33N 38°39' W 009°05'0 0.0
2016-Feb-06 03:33N 38°39' W 009°05'0 0.0
2016-Feb-06 02:33N 38°39' W 009°05'0 0.0
2016-Feb-06 01:34N 38°39' W 009°05'0 0.0
2016-Feb-06 00:34N 38°39' W 009°05'4 3.9
2016-Feb-05 23:34N 38°42' W 009°08'1 1.3
2016-Feb-05 22:34N 38°41' W 009°08'0 0.1
2016-Feb-05 21:33N 38°41' W 009°08'3 2.7
2016-Feb-05 20:33N 38°39' W 009°05'0 0.3
2016-Feb-05 19:33N 38°39' W 009°05'0 0.3
2016-Feb-05 18:33N 38°39' W 009°05'1 1.0
2016-Feb-05 17:33N 38°39' W 009°06'1 0.9
2016-Feb-05 16:33N 38°39' W 009°05'0 0.0
2016-Feb-05 10:09N 38°39' W 009°05'0 0.1
2016-Feb-05 09:33N 38°39' W 009°05'0 0.3
2016-Feb-05 08:34N 38°39' W 009°05'0 0.4
2016-Feb-05 07:33N 38°39' W 009°05'0 0.1
2016-Feb-05 06:34N 38°39' W 009°05'0 0.0
2016-Feb-04 21:25N 38°39' W 009°05'0 0.3
2016-Feb-04 20:33N 38°39' W 009°05'4 3.6
2016-Feb-04 19:34N 38°42' W 009°08'2 1.7
2016-Feb-04 18:34N 38°40' W 009°07'2 2.3
2016-Feb-04 17:33N 38°39' W 009°05'0 0.0
2016-Feb-04 16:34N 38°39' W 009°05'0 0.1
2016-Feb-04 15:34N 38°39' W 009°05'0 0.0
2016-Feb-04 13:24N 38°39' W 009°05'1 1.6
2016-Feb-04 12:33N 38°40' W 009°06'0 0.0
2016-Feb-04 11:33N 38°40' W 009°06'1 1.5
2016-Feb-04 10:33N 38°39' W 009°05'0 0.0
2016-Feb-04 09:33N 38°39' W 009°05'0 0.0
2016-Feb-04 08:33N 38°39' W 009°05'1 0.8
2016-Feb-04 07:33N 38°39' W 009°06'1 0.7
2016-Feb-04 06:33N 38°39' W 009°05'0 0.0
2016-Feb-03 21:17N 38°39' W 009°05'3 4.7
2016-Feb-03 20:33N 38°42' W 009°08'3 2.7
2016-Feb-03 19:34N 38°39' W 009°06'3 3.2
2016-Feb-03 18:33N 38°42' W 009°08'0 0.4
2016-Feb-03 17:33N 38°42' W 009°08'1 1.0
2016-Feb-03 16:33N 38°41' W 009°08'3 3.4
2016-Feb-03 15:33N 38°39' W 009°05'2 1.9
2016-Feb-03 14:33N 38°40' W 009°07'1 0.5
2016-Feb-03 13:34N 38°40' W 009°06'1 1.3
2016-Feb-03 12:34N 38°39' W 009°05'0 0.0
2016-Feb-03 11:34N 38°39' W 009°05'3 3.0
2016-Feb-03 10:34N 38°41' W 009°08'3 3.1
2016-Feb-03 09:33N 38°39' W 009°05'1 1.0
2016-Feb-03 08:33N 38°39' W 009°06'3 3.1
2016-Feb-03 07:33N 38°42' W 009°08'0 0.4
2016-Feb-03 06:33N 38°42' W 009°08'0 0.0
2016-Feb-03 05:33N 38°42' W 009°08'4 4.1
2016-Feb-03 04:33N 38°39' W 009°05'0 0.0
2016-Feb-03 03:33N 38°39' W 009°05'0 0.0
2016-Feb-03 02:33N 38°39' W 009°05'0 0.3
2016-Feb-03 01:33N 38°39' W 009°05'0 0.0
2016-Feb-03 00:33N 38°39' W 009°05'0 0.2
2016-Feb-02 23:33N 38°39' W 009°05'1 1.0
2016-Feb-02 22:33N 38°40' W 009°06'1 0.6
2016-Feb-02 21:33N 38°40' W 009°07'2 1.7
2016-Feb-02 20:33N 38°39' W 009°05'0 0.0
2016-Feb-02 19:33N 38°39' W 009°05'3 2.5
2016-Feb-02 18:34N 38°40' W 009°08'2 1.7
2016-Feb-02 17:33N 38°42' W 009°08'4 0.9
2016-Feb-02 13:28N 38°39' W 009°05'2 1.7
2016-Feb-02 12:33N 38°40' W 009°07'0 0.2
2016-Feb-02 11:33N 38°40' W 009°06'1 1.4
2016-Feb-02 10:33N 38°39' W 009°05'0 0.0
2016-Feb-02 09:34N 38°39' W 009°05'0 0.0
2016-Feb-02 08:33N 38°39' W 009°05'1 0.9
2016-Feb-02 07:34N 38°39' W 009°06'1 0.8
2016-Feb-02 06:33N 38°39' W 009°05'0 0.0
2016-Feb-01 21:15N 38°39' W 009°05'3 4.4
2016-Feb-01 20:33N 38°41' W 009°08'2 2.1
2016-Feb-01 19:34N 38°40' W 009°06'3 3.1
2016-Feb-01 18:34N 38°42' W 009°08'0 0.2
2016-Feb-01 17:34N 38°42' W 009°08'1 1.2
2016-Feb-01 16:34N 38°41' W 009°08'3 3.1
2016-Feb-01 15:33N 38°39' W 009°05'2 1.5
2016-Feb-01 14:34N 38°40' W 009°06'0 0.2
2016-Feb-01 13:34N 38°40' W 009°06'1 1.2
2016-Feb-01 12:33N 38°39' W 009°05'0 0.0
2016-Feb-01 11:33N 38°39' W 009°05'3 2.9
2016-Feb-01 10:33N 38°41' W 009°08'3 3.0
2016-Feb-01 09:33N 38°39' W 009°05'1 1.2
2016-Feb-01 08:34N 38°40' W 009°06'3 3.0
2016-Feb-01 07:34N 38°42' W 009°08'0 0.2
2016-Feb-01 06:33N 38°42' W 009°08'0 0.0
2016-Feb-01 05:33N 38°42' W 009°08'4 4.1
2016-Feb-01 04:33N 38°39' W 009°05'0 0.0
2016-Feb-01 03:33N 38°39' W 009°05'0 0.0
2016-Feb-01 02:33N 38°39' W 009°05'0 0.3
2016-Feb-01 01:34N 38°39' W 009°05'0 0.1
2016-Feb-01 00:34N 38°39' W 009°05'0 0.1
2016-Jan-31 23:34N 38°39' W 009°05'1 1.3
2016-Jan-31 22:33N 38°40' W 009°06'0 0.4
2016-Jan-31 21:33N 38°40' W 009°07'0 0.4
2016-Jan-31 20:33N 38°40' W 009°06'1 0.9
2016-Jan-31 19:34N 38°40' W 009°07'1 0.5
2016-Jan-31 18:34N 38°41' W 009°08'0 0.2
2016-Jan-31 17:33N 38°41' W 009°08'0 0.1
2016-Jan-31 16:34N 38°41' W 009°08'0 0.1
2016-Jan-31 15:33N 38°41' W 009°08'3 2.8
2016-Jan-31 14:33N 38°39' W 009°05'0 0.0
2016-Jan-31 13:33N 38°39' W 009°05'1 0.8
2016-Jan-31 12:34N 38°39' W 009°06'1 0.7
2016-Jan-31 11:33N 38°40' W 009°06'1 0.0
2016-Jan-29 21:16N 38°39' W 009°05'3 4.4
2016-Jan-29 20:33N 38°41' W 009°08'  
Track history (hours):
 
Tides and Currents Weather Stations Pressure Air Temp Water Temp Dewpoint Dewpoint Depression Visibility Wind Speed Wind Dir Waves Ship Positions

Gil Vicente

Last reported at 2016-Feb-08 20:12 UTC. Time now 2016-Feb-10 06:44 UTC.
Position N 38°39' W 009°05'.

Length 49 m.

Type: Passenger vessel. MMSI: 263701390.

Date/timePositionNaut miles runAvg speedWind from/ knotsBaromVisibWave heightAir tempDewpointWater temp
2016-Feb-08 20:12N 38°39' W 009°05'4 5.7
2016-Feb-08 19:33N 38°42' W 009°08'0 0.5
2016-Feb-08 18:34N 38°42' W 009°08'3 2.6
2016-Feb-08 17:33N 38°40' W 009°07'1 1.4
2016-Feb-08 16:33N 38°39' W 009°05'1 0.7
2016-Feb-08 15:34N 38°40' W 009°06'1 0.2
2016-Feb-08 10:22N 38°39' W 009°05'2 2.0
2016-Feb-08 09:33N 38°40' W 009°07'0 0.3
2016-Feb-08 08:34N 38°40' W 009°07'2 1.8
2016-Feb-08 07:33N 38°39' W 009°05'0 0.0
2016-Feb-08 06:34N 38°39' W 009°05'0 0.0
2016-Feb-08 05:34N 38°39' W 009°05'3 0.4
2016-Feb-07 21:33N 38°41' W 009°08'3 3.0
2016-Feb-07 20:34N 38°39' W 009°05'2 1.6
2016-Feb-07 19:34N 38°40' W 009°07'0 0.3
2016-Feb-07 18:33N 38°40' W 009°06'0 0.1
2016-Feb-07 17:33N 38°40' W 009°06'0 0.2
2016-Feb-07 16:34N 38°40' W 009°07'0 0.0
2016-Feb-07 15:34N 38°40' W 009°07'0 0.1
2016-Feb-07 14:34N 38°40' W 009°06'0 0.3
2016-Feb-07 13:34N 38°40' W 009°06'1 0.2
2016-Feb-07 07:34N 38°39' W 009°05'1 0.9
2016-Feb-07 06:33N 38°39' W 009°06'1 0.9
2016-Feb-07 05:33N 38°39' W 009°05'3 0.4
2016-Feb-06 21:33N 38°41' W 009°08'3 2.9
2016-Feb-06 20:33N 38°39' W 009°05'2 1.8
2016-Feb-06 19:34N 38°40' W 009°07'0 0.4
2016-Feb-06 18:33N 38°40' W 009°06'0 0.1
2016-Feb-06 17:34N 38°40' W 009°06'0 0.3
2016-Feb-06 16:34N 38°40' W 009°06'0 0.1
2016-Feb-06 15:33N 38°40' W 009°07'0 0.3
2016-Feb-06 14:33N 38°40' W 009°06'0 0.1
2016-Feb-06 13:33N 38°40' W 009°06'1 1.4
2016-Feb-06 12:34N 38°39' W 009°05'0 0.0
2016-Feb-06 11:33N 38°39' W 009°05'3 2.9
2016-Feb-06 10:33N 38°41' W 009°08'0 0.1
2016-Feb-06 09:33N 38°41' W 009°08'0 0.2
2016-Feb-06 08:33N 38°41' W 009°08'3 3.0
2016-Feb-06 07:34N 38°39' W 009°05'1 0.5
2016-Feb-06 06:34N 38°39' W 009°05'1 0.5
2016-Feb-06 05:34N 38°39' W 009°05'0 0.0
2016-Feb-06 04:33N 38°39' W 009°05'0 0.0
2016-Feb-06 03:33N 38°39' W 009°05'0 0.0
2016-Feb-06 02:33N 38°39' W 009°05'0 0.0
2016-Feb-06 01:34N 38°39' W 009°05'0 0.0
2016-Feb-06 00:34N 38°39' W 009°05'4 3.9
2016-Feb-05 23:34N 38°42' W 009°08'1 1.3
2016-Feb-05 22:34N 38°41' W 009°08'0 0.1
2016-Feb-05 21:33N 38°41' W 009°08'3 2.7
2016-Feb-05 20:33N 38°39' W 009°05'0 0.3
2016-Feb-05 19:33N 38°39' W 009°05'0 0.3
2016-Feb-05 18:33N 38°39' W 009°05'1 1.0
2016-Feb-05 17:33N 38°39' W 009°06'1 0.9
2016-Feb-05 16:33N 38°39' W 009°05'0 0.0
2016-Feb-05 10:09N 38°39' W 009°05'0 0.1
2016-Feb-05 09:33N 38°39' W 009°05'0 0.3
2016-Feb-05 08:34N 38°39' W 009°05'0 0.4
2016-Feb-05 07:33N 38°39' W 009°05'0 0.1
2016-Feb-05 06:34N 38°39' W 009°05'0 0.0
2016-Feb-04 21:25N 38°39' W 009°05'0 0.3
2016-Feb-04 20:33N 38°39' W 009°05'4 3.6
2016-Feb-04 19:34N 38°42' W 009°08'2 1.7
2016-Feb-04 18:34N 38°40' W 009°07'2 2.3
2016-Feb-04 17:33N 38°39' W 009°05'0 0.0
2016-Feb-04 16:34N 38°39' W 009°05'0 0.1
2016-Feb-04 15:34N 38°39' W 009°05'0 0.0
2016-Feb-04 13:24N 38°39' W 009°05'1 1.6
2016-Feb-04 12:33N 38°40' W 009°06'0 0.0
2016-Feb-04 11:33N 38°40' W 009°06'1 1.5
2016-Feb-04 10:33N 38°39' W 009°05'0 0.0
2016-Feb-04 09:33N 38°39' W 009°05'0 0.0
2016-Feb-04 08:33N 38°39' W 009°05'1 0.8
2016-Feb-04 07:33N 38°39' W 009°06'1 0.7
2016-Feb-04 06:33N 38°39' W 009°05'0 0.0
2016-Feb-03 21:17N 38°39' W 009°05'3 4.7
2016-Feb-03 20:33N 38°42' W 009°08'3 2.7
2016-Feb-03 19:34N 38°39' W 009°06'3 3.2
2016-Feb-03 18:33N 38°42' W 009°08'0 0.4
2016-Feb-03 17:33N 38°42' W 009°08'1 1.0
2016-Feb-03 16:33N 38°41' W 009°08'3 3.4
2016-Feb-03 15:33N 38°39' W 009°05'2 1.9
2016-Feb-03 14:33N 38°40' W 009°07'1 0.5
2016-Feb-03 13:34N 38°40' W 009°06'1 1.3
2016-Feb-03 12:34N 38°39' W 009°05'0 0.0
2016-Feb-03 11:34N 38°39' W 009°05'3 3.0
2016-Feb-03 10:34N 38°41' W 009°08'3 3.1
2016-Feb-03 09:33N 38°39' W 009°05'1 1.0
2016-Feb-03 08:33N 38°39' W 009°06'3 3.1
2016-Feb-03 07:33N 38°42' W 009°08'0 0.4
2016-Feb-03 06:33N 38°42' W 009°08'0 0.0
2016-Feb-03 05:33N 38°42' W 009°08'4 4.1
2016-Feb-03 04:33N 38°39' W 009°05'0 0.0
2016-Feb-03 03:33N 38°39' W 009°05'0 0.0
2016-Feb-03 02:33N 38°39' W 009°05'0 0.3
2016-Feb-03 01:33N 38°39' W 009°05'0 0.0
2016-Feb-03 00:33N 38°39' W 009°05'0 0.2
2016-Feb-02 23:33N 38°39' W 009°05'1 1.0
2016-Feb-02 22:33N 38°40' W 009°06'1 0.6
2016-Feb-02 21:33N 38°40' W 009°07'2 1.7
2016-Feb-02 20:33N 38°39' W 009°05'0 0.0
2016-Feb-02 19:33N 38°39' W 009°05'3 2.5
2016-Feb-02 18:34N 38°40' W 009°08'2 1.7
2016-Feb-02 17:33N 38°42' W 009°08'4 0.9
2016-Feb-02 13:28N 38°39' W 009°05'2 1.7
2016-Feb-02 12:33N 38°40' W 009°07'0 0.2
2016-Feb-02 11:33N 38°40' W 009°06'1 1.4
2016-Feb-02 10:33N 38°39' W 009°05'0 0.0
2016-Feb-02 09:34N 38°39' W 009°05'0 0.0
2016-Feb-02 08:33N 38°39' W 009°05'1 0.9
2016-Feb-02 07:34N 38°39' W 009°06'1 0.8
2016-Feb-02 06:33N 38°39' W 009°05'0 0.0
2016-Feb-01 21:15N 38°39' W 009°05'3 4.4
2016-Feb-01 20:33N 38°41' W 009°08'2 2.1
2016-Feb-01 19:34N 38°40' W 009°06'3 3.1
2016-Feb-01 18:34N 38°42' W 009°08'0 0.2
2016-Feb-01 17:34N 38°42' W 009°08'1 1.2
2016-Feb-01 16:34N 38°41' W 009°08'3 3.1
2016-Feb-01 15:33N 38°39' W 009°05'2 1.5
2016-Feb-01 14:34N 38°40' W 009°06'0 0.2
2016-Feb-01 13:34N 38°40' W 009°06'1 1.2
2016-Feb-01 12:33N 38°39' W 009°05'0 0.0
2016-Feb-01 11:33N 38°39' W 009°05'3 2.9
2016-Feb-01 10:33N 38°41' W 009°08'3 3.0
2016-Feb-01 09:33N 38°39' W 009°05'1 1.2
2016-Feb-01 08:34N 38°40' W 009°06'3 3.0
2016-Feb-01 07:34N 38°42' W 009°08'0 0.2
2016-Feb-01 06:33N 38°42' W 009°08'0 0.0
2016-Feb-01 05:33N 38°42' W 009°08'4 4.1
2016-Feb-01 04:33N 38°39' W 009°05'0 0.0
2016-Feb-01 03:33N 38°39' W 009°05'0 0.0
2016-Feb-01 02:33N 38°39' W 009°05'0 0.3
2016-Feb-01 01:34N 38°39' W 009°05'0 0.1
2016-Feb-01 00:34N 38°39' W 009°05'0 0.1
2016-Jan-31 23:34N 38°39' W 009°05'1 1.3
2016-Jan-31 22:33N 38°40' W 009°06'0 0.4
2016-Jan-31 21:33N 38°40' W 009°07'0 0.4
2016-Jan-31 20:33N 38°40' W 009°06'1 0.9
2016-Jan-31 19:34N 38°40' W 009°07'1 0.5
2016-Jan-31 18:34N 38°41' W 009°08'0 0.2
2016-Jan-31 17:33N 38°41' W 009°08'0 0.1
2016-Jan-31 16:34N 38°41' W 009°08'0 0.1
2016-Jan-31 15:33N 38°41' W 009°08'3 2.8
2016-Jan-31 14:33N 38°39' W 009°05'0 0.0
2016-Jan-31 13:33N 38°39' W 009°05'1 0.8
2016-Jan-31 12:34N 38°39' W 009°06'1 0.7
2016-Jan-31 11:33N 38°40' W 009°06'1 0.0
2016-Jan-29 21:16N 38°39' W 009°05'3 4.4
2016-Jan-29 20:33N 38°41' W 009°08'  

Dump ship's entire track history